createdAt,value
2022-10-29T00:01:01.282Z,100606.31
2022-10-29T00:01:41.472Z,100582.50
2022-10-29T00:02:21.389Z,100599.88
2022-10-29T00:03:01.334Z,100603.59
2022-10-29T00:03:43.180Z,100587.91
2022-10-29T00:04:30.206Z,100580.38
2022-10-29T00:05:24.188Z,100595.28
2022-10-29T00:06:25.195Z,100604.19
2022-10-29T00:07:19.197Z,100586.47
2022-10-29T00:08:14.201Z,100602.47
2022-10-29T00:09:08.193Z,100601.59
2022-10-29T00:09:55.224Z,100592.47
2022-10-29T00:10:29.232Z,100589.59
2022-10-29T00:11:19.169Z,100585.94
2022-10-29T00:11:53.265Z,100603.03
2022-10-29T00:12:40.164Z,100588.41
2022-10-29T00:13:14.251Z,100599.09
2022-10-29T00:14:07.193Z,100609.75
2022-10-29T00:14:41.242Z,100596.47
2022-10-29T00:15:22.248Z,100589.34
2022-10-29T00:16:02.236Z,100605.31
2022-10-29T00:16:45.201Z,100604.47
2022-10-29T00:17:25.249Z,100600.47
2022-10-29T00:18:05.164Z,100599.63
2022-10-29T00:18:45.261Z,100609.91
2022-10-29T00:19:25.205Z,100585.09
2022-10-29T00:20:05.344Z,100594.19
2022-10-29T00:20:45.208Z,100595.00
2022-10-29T00:21:28.258Z,100601.66
2022-10-29T00:22:09.163Z,100600.81
2022-10-29T00:22:49.267Z,100603.75
2022-10-29T00:23:29.142Z,100607.03
2022-10-29T00:24:09.269Z,100600.88
2022-10-29T00:24:49.147Z,100590.22
2022-10-29T00:25:29.280Z,100599.97
2022-10-29T00:26:10.218Z,100598.69
2022-10-29T00:26:50.458Z,100594.53
2022-10-29T00:27:31.169Z,100595.69
2022-10-29T00:28:11.309Z,100578.69
2022-10-29T00:28:52.179Z,100591.66
2022-10-29T00:29:32.218Z,100582.25
2022-10-29T00:30:13.156Z,100592.84
2022-10-29T00:30:53.268Z,100592.59
2022-10-29T00:31:33.216Z,100596.56
2022-10-29T00:32:13.323Z,100601.13
2022-10-29T00:32:54.438Z,100593.56
2022-10-29T00:33:35.234Z,100596.41
2022-10-29T00:34:16.154Z,100586.84
2022-10-29T00:34:56.254Z,100598.81
2022-10-29T00:35:36.142Z,100596.84
2022-10-29T00:36:22.060Z,100607.44
2022-10-29T00:37:02.245Z,100595.16
2022-10-29T00:37:42.291Z,100603.41
2022-10-29T00:38:23.167Z,100577.13
2022-10-29T00:39:04.422Z,100597.44
2022-10-29T00:39:44.163Z,100596.75
2022-10-29T00:40:24.272Z,100592.28
2022-10-29T00:41:05.187Z,100598.88
2022-10-29T00:41:45.263Z,100596.84
2022-10-29T00:42:26.188Z,100590.16
2022-10-29T00:43:23.276Z,100595.00
2022-10-29T00:44:22.165Z,100602.03
2022-10-29T00:45:02.239Z,100591.00
2022-10-29T00:45:42.192Z,100598.06
2022-10-29T00:46:28.281Z,100602.56
2022-10-29T00:47:29.251Z,100596.03
2022-10-29T00:48:09.273Z,100584.63
2022-10-29T00:48:53.132Z,100578.59
2022-10-29T00:49:33.242Z,100595.00
2022-10-29T00:50:17.120Z,100588.31
2022-10-29T00:50:58.238Z,100593.91
2022-10-29T00:51:39.139Z,100589.19
2022-10-29T00:52:19.300Z,100589.75
2022-10-29T00:53:01.167Z,100578.00
2022-10-29T00:53:45.266Z,100595.44
2022-10-29T00:54:26.124Z,100578.00
2022-10-29T00:55:09.196Z,100600.00
2022-10-29T00:55:50.121Z,100578.00
2022-10-29T00:56:32.235Z,100597.69
2022-10-29T00:57:19.133Z,100578.00
2022-10-29T00:58:00.859Z,100582.59
2022-10-29T00:58:42.175Z,100580.28
2022-10-29T00:59:23.218Z,100581.13
2022-10-29T01:00:04.138Z,100586.13
2022-10-29T01:00:58.147Z,100586.25
2022-10-29T01:01:53.263Z,100567.44
2022-10-29T01:02:49.184Z,100585.69
2022-10-29T01:03:43.161Z,100573.00
2022-10-29T01:04:38.116Z,100587.59
2022-10-29T01:05:37.158Z,100587.19
2022-10-29T01:06:31.148Z,100588.13
2022-10-29T01:07:26.150Z,100581.75
2022-10-29T01:08:20.136Z,100577.31
2022-10-29T01:09:07.143Z,100572.28
2022-10-29T01:09:41.277Z,100567.13
2022-10-29T01:10:47.119Z,100564.00
2022-10-29T01:11:55.236Z,100586.84
2022-10-29T01:13:01.123Z,100586.47
2022-10-29T01:13:56.271Z,100589.19
2022-10-29T01:14:43.148Z,100569.38
2022-10-29T01:16:01.209Z,100580.72
2022-10-29T01:17:13.116Z,100571.63
2022-10-29T01:18:28.202Z,100578.31
2022-10-29T01:19:37.131Z,100580.63
2022-10-29T01:20:41.152Z,100585.16
2022-10-29T01:21:44.227Z,100572.47
2022-10-29T01:23:16.090Z,100573.06
2022-10-29T01:24:17.163Z,100581.16
2022-10-29T01:25:48.148Z,100581.50
2022-10-29T01:26:55.195Z,100589.38
2022-10-29T01:27:54.306Z,100570.63
2022-10-29T01:28:49.178Z,100569.22
2022-10-29T01:29:56.101Z,100575.38
2022-10-29T01:30:44.153Z,100555.63
2022-10-29T01:31:41.157Z,100570.91
2022-10-29T01:32:25.177Z,100570.19
2022-10-29T01:33:14.139Z,100568.34
2022-10-29T01:34:21.231Z,100555.16
2022-10-29T01:35:32.099Z,100577.84
2022-10-29T01:36:48.160Z,100567.44
2022-10-29T01:38:06.100Z,100576.31
2022-10-29T01:39:10.240Z,100567.47
2022-10-29T01:40:29.099Z,100570.63
2022-10-29T01:41:43.147Z,100553.56
2022-10-29T01:42:41.174Z,100550.97
2022-10-29T01:43:33.148Z,100571.97
2022-10-29T01:44:59.094Z,100566.69
2022-10-29T01:46:13.155Z,100569.84
2022-10-29T01:46:59.070Z,100575.97
2022-10-29T01:47:56.455Z,100576.88
2022-10-29T01:48:55.079Z,100562.88
2022-10-29T01:49:53.069Z,100568.31
2022-10-29T01:50:48.091Z,100573.28
2022-10-29T01:51:45.105Z,100570.56
2022-10-29T01:52:42.083Z,100567.13
2022-10-29T01:53:23.105Z,100558.28
2022-10-29T01:54:06.161Z,100576.16
2022-10-29T01:54:50.074Z,100566.44
2022-10-29T01:55:38.149Z,100566.00
2022-10-29T01:56:18.072Z,100554.84
2022-10-29T01:57:03.163Z,100562.88
2022-10-29T01:57:45.087Z,100553.44
2022-10-29T01:58:32.124Z,100561.44
2022-10-29T01:59:36.233Z,100552.03
2022-10-29T02:00:37.144Z,100561.84
2022-10-29T02:01:53.105Z,100562.00
2022-10-29T02:03:38.113Z,100569.59
2022-10-29T02:04:50.082Z,100564.03
2022-10-29T02:05:57.065Z,100571.22
2022-10-29T02:07:01.068Z,100566.09
2022-10-29T02:08:14.067Z,100562.97
2022-10-29T02:09:34.088Z,100569.38
2022-10-29T02:10:16.148Z,100581.25
2022-10-29T02:11:25.075Z,100564.41
2022-10-29T02:12:17.174Z,100538.94
2022-10-29T02:13:04.067Z,100555.53
2022-10-29T02:13:44.152Z,100571.50
2022-10-29T02:14:45.092Z,100564.38
2022-10-29T02:15:44.111Z,100568.69
2022-10-29T02:16:32.071Z,100561.56
2022-10-29T02:17:15.272Z,100568.00
2022-10-29T02:18:12.074Z,100574.13
2022-10-29T02:18:51.212Z,100575.41
2022-10-29T02:19:40.059Z,100577.84
2022-10-29T02:20:25.081Z,100569.00
2022-10-29T02:21:20.048Z,100573.44
2022-10-29T02:22:14.059Z,100555.56
2022-10-29T02:23:08.057Z,100549.13
2022-10-29T02:24:02.063Z,100563.25
2022-10-29T02:24:56.172Z,100559.84
2022-10-29T02:25:43.134Z,100553.53
2022-10-29T02:26:17.156Z,100556.41
2022-10-29T02:27:04.045Z,100567.53
2022-10-29T02:27:38.132Z,100551.53
2022-10-29T02:28:25.029Z,100559.38
2022-10-29T02:28:59.178Z,100562.84
2022-10-29T02:29:46.072Z,100549.53
2022-10-29T02:30:20.135Z,100548.69
2022-10-29T02:31:07.115Z,100558.53
2022-10-29T02:31:41.109Z,100527.72
2022-10-29T02:32:28.039Z,100548.97
2022-10-29T02:33:02.130Z,100544.69
2022-10-29T02:33:49.047Z,100541.22
2022-10-29T02:34:23.112Z,100536.94
2022-10-29T02:35:11.039Z,100520.94
2022-10-29T02:35:45.097Z,100546.81
2022-10-29T02:36:32.077Z,100528.09
2022-10-29T02:37:06.154Z,100521.78
2022-10-29T02:37:54.059Z,100548.97
2022-10-29T02:38:28.135Z,100532.66
2022-10-29T02:39:15.036Z,100550.53
2022-10-29T02:39:49.112Z,100547.66
2022-10-29T02:40:36.036Z,100553.38
2022-10-29T02:41:10.098Z,100552.38
2022-10-29T02:41:57.052Z,100551.09
2022-10-29T02:42:31.176Z,100537.78
2022-10-29T02:43:52.123Z,100545.66
2022-10-29T02:44:39.048Z,100539.13
2022-10-29T02:45:13.103Z,100516.69
2022-10-29T02:46:20.055Z,100550.09
2022-10-29T02:46:54.093Z,100546.38
2022-10-29T02:47:35.116Z,100539.66
2022-10-29T02:48:15.081Z,100529.22
2022-10-29T02:48:56.031Z,100543.66
2022-10-29T02:49:36.117Z,100535.81
2022-10-29T02:50:17.031Z,100527.94
2022-10-29T02:50:58.900Z,100533.09
2022-10-29T02:51:40.056Z,100515.94
2022-10-29T02:52:20.144Z,100526.59
2022-10-29T02:53:00.054Z,100504.19
2022-10-29T02:53:40.129Z,100530.75
2022-10-29T02:54:21.019Z,100532.09
2022-10-29T02:55:01.112Z,100524.94
2022-10-29T02:55:41.054Z,100517.47
2022-10-29T02:56:21.105Z,100506.81
2022-10-29T02:57:01.030Z,100518.06
2022-10-29T02:57:41.093Z,100518.34
2022-10-29T02:59:03.407Z,100533.47
2022-10-29T02:59:46.017Z,100523.75
2022-10-29T03:00:26.107Z,100521.47
2022-10-29T03:01:07.041Z,100538.34
2022-10-29T03:01:47.201Z,100534.91
2022-10-29T03:02:27.124Z,100519.09
2022-10-29T03:03:07.111Z,100528.78
2022-10-29T03:03:47.034Z,100531.78
2022-10-29T03:04:27.116Z,100530.38
2022-10-29T03:05:08.008Z,100540.94
2022-10-29T03:05:49.289Z,100528.63
2022-10-29T03:06:29.007Z,100517.22
2022-10-29T03:07:09.092Z,100526.06
2022-10-29T03:07:48.993Z,100526.34
2022-10-29T03:08:29.126Z,100520.09
2022-10-29T03:09:10.053Z,100538.91
2022-10-29T03:09:50.097Z,100530.75
2022-10-29T03:10:31.012Z,100531.47
2022-10-29T03:11:11.095Z,100521.47
2022-10-29T03:11:51.012Z,100525.19
2022-10-29T03:12:31.074Z,100508.03
2022-10-29T03:13:12.012Z,100535.41
2022-10-29T03:13:52.069Z,100536.72
2022-10-29T03:14:32.020Z,100528.16
2022-10-29T03:15:13.149Z,100525.59
2022-10-29T03:15:54.015Z,100529.19
2022-10-29T03:16:34.124Z,100525.59
2022-10-29T03:17:14.016Z,100512.06
2022-10-29T03:17:54.603Z,100519.19
2022-10-29T03:18:34.991Z,100520.63
2022-10-29T03:19:15.124Z,100525.19
2022-10-29T03:19:56.029Z,100511.06
2022-10-29T03:20:36.085Z,100528.03
2022-10-29T03:21:16.999Z,100514.75
2022-10-29T03:21:57.084Z,100509.19
2022-10-29T03:22:37.014Z,100530.19
2022-10-29T03:23:17.142Z,100531.78
2022-10-29T03:23:57.002Z,100532.50
2022-10-29T03:24:37.077Z,100547.72
2022-10-29T03:25:17.024Z,100554.34
2022-10-29T03:26:01.084Z,100556.03
2022-10-29T03:26:41.989Z,100537.94
2022-10-29T03:27:22.070Z,100545.47
2022-10-29T03:28:02.016Z,100551.78
2022-10-29T03:28:42.131Z,100543.47
2022-10-29T03:29:21.998Z,100554.66
2022-10-29T03:30:02.089Z,100543.66
2022-10-29T03:30:42.025Z,100549.22
2022-10-29T03:31:22.057Z,100534.06
2022-10-29T03:32:02.976Z,100544.06
2022-10-29T03:32:47.069Z,100553.91
2022-10-29T03:33:26.975Z,100555.88
2022-10-29T03:34:07.072Z,100543.03
2022-10-29T03:34:47.009Z,100541.16
2022-10-29T03:35:27.113Z,100550.81
2022-10-29T03:36:10.075Z,100537.19
2022-10-29T03:36:50.054Z,100544.03
2022-10-29T03:37:30.985Z,100545.47
2022-10-29T03:38:11.103Z,100558.16
2022-10-29T03:38:50.985Z,100562.59
2022-10-29T03:39:31.064Z,100540.34
2022-10-29T03:40:12.979Z,100548.47
2022-10-29T03:40:53.052Z,100554.31
2022-10-29T03:41:33.019Z,100552.03
2022-10-29T03:42:13.047Z,100545.91
2022-10-29T03:42:54.408Z,100546.59
2022-10-29T03:43:35.076Z,100557.72
2022-10-29T03:44:14.979Z,100548.63
2022-10-29T03:44:55.053Z,100552.44
2022-10-29T03:45:35.000Z,100541.44
2022-10-29T03:46:15.047Z,100534.00
2022-10-29T03:46:55.019Z,100534.63
2022-10-29T03:47:36.067Z,100552.59
2022-10-29T03:48:16.977Z,100547.84
2022-10-29T03:48:57.047Z,100543.97
2022-10-29T03:49:37.985Z,100536.00
2022-10-29T03:50:18.047Z,100543.44
2022-10-29T03:51:09.999Z,100546.28
2022-10-29T03:51:50.032Z,100532.19
2022-10-29T03:52:30.063Z,100541.44
2022-10-29T03:53:10.026Z,100524.47
2022-10-29T03:53:49.963Z,100538.13
2022-10-29T03:54:30.118Z,100523.50
2022-10-29T03:55:11.976Z,100523.16
2022-10-29T03:55:52.061Z,100539.53
2022-10-29T03:56:31.976Z,100542.56
2022-10-29T03:57:12.041Z,100543.44
2022-10-29T03:57:53.115Z,100543.13
2022-10-29T03:58:34.034Z,100548.00
2022-10-29T03:59:14.965Z,100545.28
2022-10-29T03:59:56.017Z,100547.69
2022-10-29T04:00:35.987Z,100544.97
2022-10-29T04:01:17.134Z,100555.69
2022-10-29T04:01:57.116Z,100551.59
2022-10-29T04:02:38.114Z,100530.88
2022-10-29T04:03:19.012Z,100558.03
2022-10-29T04:03:59.095Z,100543.38
2022-10-29T04:04:38.969Z,100563.31
2022-10-29T04:05:19.040Z,100561.53
2022-10-29T04:05:58.948Z,100551.34
2022-10-29T04:06:39.047Z,100565.63
2022-10-29T04:07:18.966Z,100565.19
2022-10-29T04:07:59.046Z,100572.00
2022-10-29T04:08:39.996Z,100565.91
2022-10-29T04:09:20.051Z,100558.31
2022-10-29T04:09:59.983Z,100572.41
2022-10-29T04:10:40.026Z,100565.88
2022-10-29T04:11:20.964Z,100572.88
2022-10-29T04:12:01.145Z,100569.16
2022-10-29T04:12:40.947Z,100561.28
2022-10-29T04:13:22.012Z,100574.69
2022-10-29T04:14:02.998Z,100571.28
2022-10-29T04:14:45.585Z,100571.16
2022-10-29T04:15:25.949Z,100562.19
2022-10-29T04:16:06.011Z,100554.19
2022-10-29T04:16:45.944Z,100569.75
2022-10-29T04:17:26.044Z,100573.16
2022-10-29T04:18:05.970Z,100569.03
2022-10-29T04:18:46.010Z,100549.50
2022-10-29T04:19:26.971Z,100580.63
2022-10-29T04:20:14.462Z,100580.63
2022-10-29T04:24:12.092Z,100595.13
2022-10-29T04:29:11.944Z,100581.56
2022-10-29T04:29:52.007Z,100575.13
2022-10-29T04:30:32.985Z,100583.56
2022-10-29T04:31:15.030Z,100589.84
2022-10-29T04:31:55.932Z,100587.28
2022-10-29T04:32:35.995Z,100590.28
2022-10-29T04:33:15.944Z,100581.25
2022-10-29T04:33:56.109Z,100583.13
2022-10-29T04:34:35.972Z,100583.22
2022-10-29T04:35:16.024Z,100575.28
2022-10-29T04:36:00.975Z,100590.13
2022-10-29T04:36:41.009Z,100593.59
2022-10-29T04:37:20.923Z,100580.28
2022-10-29T04:38:01.004Z,100580.16
2022-10-29T04:38:41.920Z,100591.56
2022-10-29T04:39:23.500Z,100589.00
2022-10-29T04:40:03.944Z,100590.44
2022-10-29T04:40:44.008Z,100584.72
2022-10-29T04:41:24.972Z,100582.16
2022-10-29T04:42:04.991Z,100587.41
2022-10-29T04:42:45.932Z,100594.88
2022-10-29T04:43:26.983Z,100580.28
2022-10-29T04:44:08.912Z,100592.16
2022-10-29T04:44:49.035Z,100584.28
2022-10-29T04:45:29.953Z,100583.16
2022-10-29T04:46:10.014Z,100579.72
2022-10-29T04:46:50.952Z,100566.97
2022-10-29T04:47:31.004Z,100573.16
2022-10-29T04:48:12.915Z,100579.59
2022-10-29T04:48:59.433Z,100586.16
2022-10-29T04:49:46.923Z,100566.75
2022-10-29T04:50:29.900Z,100587.59
2022-10-29T04:51:13.435Z,100589.88
2022-10-29T04:52:03.947Z,100581.03
2022-10-29T04:52:57.929Z,100576.88
2022-10-29T04:53:53.924Z,100582.47
2022-10-29T04:54:47.953Z,100591.63
2022-10-29T04:55:42.925Z,100579.03
2022-10-29T04:56:36.919Z,100587.88
2022-10-29T04:57:24.006Z,100577.03
2022-10-29T04:57:58.374Z,100594.19
2022-10-29T04:58:55.906Z,100588.16
2022-10-29T04:59:29.991Z,100580.16
2022-10-29T05:00:22.919Z,100573.56
2022-10-29T05:00:57.037Z,100588.75
2022-10-29T05:01:43.907Z,100590.03
2022-10-29T05:02:20.981Z,100587.31
2022-10-29T05:03:01.935Z,100590.59
2022-10-29T05:03:41.968Z,100581.59
2022-10-29T05:04:21.896Z,100570.75
2022-10-29T05:05:01.963Z,100595.88
2022-10-29T05:05:47.923Z,100581.44
2022-10-29T05:06:28.056Z,100588.00
2022-10-29T05:07:08.939Z,100579.31
2022-10-29T05:07:49.034Z,100594.44
2022-10-29T05:08:29.072Z,100577.59
2022-10-29T05:09:12.020Z,100596.00
2022-10-29T05:09:51.905Z,100594.13
2022-10-29T05:10:42.010Z,100584.88
2022-10-29T05:11:21.893Z,100584.59
2022-10-29T05:12:01.971Z,100589.28
2022-10-29T05:12:43.198Z,100585.28
2022-10-29T05:13:22.977Z,100590.44
2022-10-29T05:14:02.936Z,100592.84
2022-10-29T05:14:42.990Z,100595.88
2022-10-29T05:15:23.911Z,100590.28
2022-10-29T05:16:04.977Z,100589.00
2022-10-29T05:16:45.894Z,100597.84
2022-10-29T05:17:25.961Z,100590.72
2022-10-29T05:18:06.893Z,100608.16
2022-10-29T05:18:46.978Z,100605.72
2022-10-29T05:19:26.947Z,100593.44
2022-10-29T05:20:06.992Z,100596.44
2022-10-29T05:20:46.902Z,100599.84
2022-10-29T05:21:27.019Z,100598.16
2022-10-29T05:22:33.895Z,100610.28
2022-10-29T05:23:15.964Z,100597.56
2022-10-29T05:23:55.903Z,100611.72
2022-10-29T05:24:42.909Z,100615.81
2022-10-29T05:25:36.922Z,100623.38
2022-10-29T05:26:30.912Z,100597.72
2022-10-29T05:27:24.893Z,100622.84
2022-10-29T05:28:28.905Z,100607.13
2022-10-29T05:29:22.884Z,100623.25
2022-10-29T05:30:02.915Z,100619.13
2022-10-29T05:30:43.883Z,100617.81
2022-10-29T05:31:24.879Z,100611.22
2022-10-29T05:32:07.146Z,100599.78
2022-10-29T05:32:47.888Z,100604.38
2022-10-29T05:33:31.051Z,100611.78
2022-10-29T05:34:11.885Z,100607.22
2022-10-29T05:34:52.938Z,100616.91
2022-10-29T05:35:33.917Z,100608.22
2022-10-29T05:36:14.057Z,100617.34
2022-10-29T05:36:53.890Z,100607.50
2022-10-29T05:37:33.934Z,100616.81
2022-10-29T05:38:18.895Z,100610.38
2022-10-29T05:38:58.963Z,100612.50
2022-10-29T05:39:38.897Z,100616.09
2022-10-29T05:40:18.959Z,100602.56
2022-10-29T05:40:58.922Z,100624.53
2022-10-29T05:41:38.953Z,100629.97
2022-10-29T05:42:18.873Z,100624.22
2022-10-29T05:42:59.210Z,100612.66
2022-10-29T05:43:40.856Z,100628.06
2022-10-29T05:44:20.933Z,100623.19
2022-10-29T05:45:00.888Z,100626.34
2022-10-29T05:45:42.001Z,100616.63
2022-10-29T05:46:25.859Z,100625.75
2022-10-29T05:47:05.956Z,100619.44
2022-10-29T05:47:49.867Z,100611.47
2022-10-29T05:48:32.954Z,100591.59
2022-10-29T05:49:12.863Z,100614.34
2022-10-29T05:49:52.925Z,100624.13
2022-10-29T05:50:34.859Z,100635.41
2022-10-29T05:51:14.946Z,100630.31
2022-10-29T05:51:54.892Z,100622.88
2022-10-29T05:52:34.975Z,100632.41
2022-10-29T05:53:18.867Z,100638.56
2022-10-29T05:53:58.933Z,100621.41
2022-10-29T05:54:38.855Z,100631.31
2022-10-29T05:55:18.935Z,100623.44
2022-10-29T05:55:58.859Z,100626.16
2022-10-29T05:56:38.947Z,100631.41
2022-10-29T05:57:18.888Z,100637.94
2022-10-29T05:58:06.958Z,100639.97
2022-10-29T05:58:47.871Z,100639.09
2022-10-29T05:59:32.630Z,100632.47
2022-10-29T06:00:15.887Z,100628.50
2022-10-29T06:00:55.951Z,100638.19
2022-10-29T06:01:36.061Z,100639.38
2022-10-29T06:02:49.027Z,100640.06
2022-10-29T06:03:29.960Z,100643.81
2022-10-29T06:04:10.835Z,100640.22
2022-10-29T06:04:50.947Z,100622.91
2022-10-29T06:05:31.883Z,100645.63
2022-10-29T06:06:13.123Z,100633.03
2022-10-29T06:06:53.963Z,100624.22
2022-10-29T06:07:33.920Z,100620.03
2022-10-29T06:08:13.895Z,100628.84
2022-10-29T06:08:54.939Z,100616.97
2022-10-29T06:09:34.848Z,100620.53
2022-10-29T06:10:14.908Z,100617.09
2022-10-29T06:10:54.905Z,100629.38
2022-10-29T06:11:34.946Z,100636.41
2022-10-29T06:12:14.889Z,100638.13
2022-10-29T06:12:55.964Z,100635.56
2022-10-29T06:13:41.103Z,100635.41
2022-10-29T06:14:21.963Z,100640.69
2022-10-29T06:15:01.876Z,100637.56
2022-10-29T06:15:41.978Z,100639.81
2022-10-29T06:16:21.871Z,100647.81
2022-10-29T06:17:01.936Z,100641.38
2022-10-29T06:17:46.876Z,100640.69
2022-10-29T06:18:30.353Z,100633.13
2022-10-29T06:19:10.967Z,100637.25
2022-10-29T06:19:50.995Z,100641.00
2022-10-29T06:20:30.893Z,100649.53
2022-10-29T06:21:11.984Z,100646.56
2022-10-29T06:21:54.157Z,100642.97
2022-10-29T06:22:36.954Z,100645.78
2022-10-29T06:23:22.902Z,100648.38
2022-10-29T06:24:03.967Z,100648.66
2022-10-29T06:24:43.948Z,100636.75
2022-10-29T06:25:24.973Z,100633.53
2022-10-29T06:26:07.856Z,100647.25
2022-10-29T06:26:47.956Z,100646.63
2022-10-29T06:27:27.860Z,100634.81
2022-10-29T06:28:10.094Z,100652.41
2022-10-29T06:28:49.868Z,100636.25
2022-10-29T06:29:30.921Z,100652.69
2022-10-29T06:30:12.872Z,100644.06
2022-10-29T06:30:55.993Z,100648.66
2022-10-29T06:31:35.878Z,100652.47
2022-10-29T06:32:15.990Z,100650.50
2022-10-29T06:32:56.217Z,100658.34
2022-10-29T06:33:36.918Z,100644.94
2022-10-29T06:34:16.858Z,100657.84
2022-10-29T06:34:57.923Z,100655.97
2022-10-29T06:35:37.882Z,100661.25
2022-10-29T06:36:17.910Z,100651.84
2022-10-29T06:36:57.862Z,100665.69
2022-10-29T06:37:37.965Z,100666.94
2022-10-29T06:38:17.836Z,100671.25
2022-10-29T06:38:57.908Z,100665.25
2022-10-29T06:39:37.863Z,100648.66
2022-10-29T06:40:17.922Z,100665.47
2022-10-29T06:40:59.895Z,100659.75
2022-10-29T06:41:39.924Z,100659.75
2022-10-29T06:42:19.853Z,100662.47
2022-10-29T06:43:11.903Z,100654.91
2022-10-29T06:43:51.871Z,100667.50
2022-10-29T06:44:32.959Z,100648.91
2022-10-29T06:45:13.855Z,100663.63
2022-10-29T06:45:55.977Z,100668.94
2022-10-29T06:46:35.859Z,100662.91
2022-10-29T06:47:15.883Z,100653.59
2022-10-29T06:47:56.121Z,100657.47
2022-10-29T06:48:35.934Z,100639.19
2022-10-29T06:49:15.818Z,100645.72
2022-10-29T06:49:57.180Z,100649.47
2022-10-29T06:50:37.926Z,100663.16
2022-10-29T06:51:17.925Z,100672.50
2022-10-29T06:51:58.864Z,100662.31
2022-10-29T06:52:39.022Z,100677.16
2022-10-29T06:53:20.830Z,100676.47
2022-10-29T06:54:00.908Z,100668.94
2022-10-29T06:54:40.817Z,100658.78
2022-10-29T06:55:21.886Z,100668.59
2022-10-29T06:56:01.815Z,100668.59
2022-10-29T06:56:41.952Z,100653.44
2022-10-29T06:57:21.883Z,100662.88
2022-10-29T06:58:19.978Z,100663.47
2022-10-29T06:58:59.821Z,100662.41
2022-10-29T06:59:39.930Z,100654.53
2022-10-29T07:00:19.829Z,100664.25
2022-10-29T07:00:59.913Z,100632.53
2022-10-29T07:01:39.911Z,100647.91
2022-10-29T07:02:20.881Z,100649.31
2022-10-29T07:03:00.998Z,100652.44
2022-10-29T07:03:42.892Z,100630.50
2022-10-29T07:04:24.845Z,100650.06
2022-10-29T07:05:04.899Z,100654.53
2022-10-29T07:05:44.809Z,100656.66
2022-10-29T07:06:24.955Z,100657.66
2022-10-29T07:07:04.822Z,100654.66
2022-10-29T07:07:44.915Z,100654.66
2022-10-29T07:08:24.882Z,100645.97
2022-10-29T07:09:04.871Z,100638.94
2022-10-29T07:09:44.856Z,100645.06
2022-10-29T07:10:25.900Z,100639.16
2022-10-29T07:11:05.816Z,100649.25
2022-10-29T07:11:47.805Z,100643.41
2022-10-29T07:12:27.786Z,100655.94
2022-10-29T07:13:08.888Z,100647.22
2022-10-29T07:13:49.840Z,100640.41
2022-10-29T07:14:29.873Z,100638.06
2022-10-29T07:15:09.797Z,100645.13
2022-10-29T07:15:50.911Z,100647.22
2022-10-29T07:16:30.804Z,100644.19
2022-10-29T07:17:10.931Z,100657.75
2022-10-29T07:18:07.806Z,100656.19
2022-10-29T07:18:47.900Z,100646.97
2022-10-29T07:19:27.824Z,100663.66
2022-10-29T07:20:08.944Z,100661.94
2022-10-29T07:20:51.811Z,100649.56
2022-10-29T07:21:32.918Z,100661.63
2022-10-29T07:22:12.837Z,100669.63
2022-10-29T07:22:57.554Z,100651.06
2022-10-29T07:23:37.866Z,100666.78
2022-10-29T07:24:18.914Z,100660.59
2022-10-29T07:25:01.260Z,100663.03
2022-10-29T07:25:44.903Z,100666.00
2022-10-29T07:26:24.792Z,100648.41
2022-10-29T07:27:07.200Z,100660.00
2022-10-29T07:27:47.853Z,100652.59
2022-10-29T07:28:29.851Z,100663.44
2022-10-29T07:29:09.803Z,100660.22
2022-10-29T07:29:49.898Z,100632.53
2022-10-29T07:30:30.847Z,100657.81
2022-10-29T07:31:11.846Z,100648.63
2022-10-29T07:31:51.776Z,100658.44
2022-10-29T07:32:31.877Z,100647.84
2022-10-29T07:33:11.804Z,100662.09
2022-10-29T07:33:51.844Z,100654.31
2022-10-29T07:34:31.766Z,100671.34
2022-10-29T07:35:12.833Z,100656.66
2022-10-29T07:35:53.838Z,100673.38
2022-10-29T07:36:36.869Z,100662.50
2022-10-29T07:37:16.789Z,100670.25
2022-10-29T07:37:57.262Z,100673.31
2022-10-29T07:38:37.784Z,100661.16
2022-10-29T07:39:17.883Z,100659.59
2022-10-29T07:39:57.770Z,100678.38
2022-10-29T07:40:38.900Z,100676.72
2022-10-29T07:41:18.824Z,100679.44
2022-10-29T07:41:59.852Z,100684.50
2022-10-29T07:42:39.804Z,100681.00
2022-10-29T07:43:20.865Z,100675.31
2022-10-29T07:44:00.771Z,100675.94
2022-10-29T07:44:40.871Z,100669.63
2022-10-29T07:45:20.789Z,100667.63
2022-10-29T07:46:00.878Z,100668.94
2022-10-29T07:46:40.810Z,100673.13
2022-10-29T07:47:21.835Z,100668.78
2022-10-29T07:48:09.763Z,100683.41
2022-10-29T07:48:49.919Z,100690.00
2022-10-29T07:49:30.774Z,100669.97
2022-10-29T07:50:12.724Z,100673.53
2022-10-29T07:50:53.771Z,100680.84
2022-10-29T07:51:33.852Z,100679.69
2022-10-29T07:52:20.788Z,100650.16
2022-10-29T07:52:55.179Z,100661.91
2022-10-29T07:53:42.744Z,100681.78
2022-10-29T07:54:16.878Z,100682.50
2022-10-29T07:55:03.798Z,100667.63
2022-10-29T07:55:37.849Z,100667.78
2022-10-29T07:56:24.807Z,100659.53
2022-10-29T07:56:59.889Z,100671.28
2022-10-29T07:57:40.789Z,100667.47
2022-10-29T07:58:20.865Z,100675.19
2022-10-29T07:59:00.764Z,100671.28
2022-10-29T07:59:41.068Z,100659.75
2022-10-29T08:00:21.752Z,100674.41
2022-10-29T08:01:01.924Z,100671.69
2022-10-29T08:01:42.972Z,100672.38
2022-10-29T08:03:06.898Z,100656.97
2022-10-29T08:04:03.780Z,100672.38
2022-10-29T08:04:57.747Z,100660.94
2022-10-29T08:05:56.762Z,100684.97
2022-10-29T08:06:50.770Z,100680.41
2022-10-29T08:07:44.742Z,100679.53
2022-10-29T08:08:32.789Z,100680.88
2022-10-29T08:09:06.864Z,100671.97
2022-10-29T08:09:53.770Z,100683.44
2022-10-29T08:10:28.847Z,100665.84
2022-10-29T08:11:15.748Z,100660.56
2022-10-29T08:11:50.053Z,100675.88
2022-10-29T08:12:36.767Z,100678.59
2022-10-29T08:13:12.849Z,100671.44
2022-10-29T08:13:55.764Z,100676.25
2022-10-29T08:14:35.865Z,100674.22
2022-10-29T08:15:15.800Z,100682.50
2022-10-29T08:15:55.839Z,100668.25
2022-10-29T08:16:36.743Z,100689.09
2022-10-29T08:17:16.821Z,100666.16
2022-10-29T08:17:57.759Z,100681.53
2022-10-29T08:18:37.832Z,100678.13
2022-10-29T08:19:17.779Z,100687.31
2022-10-29T08:19:57.790Z,100697.25
2022-10-29T08:20:38.750Z,100683.75
2022-10-29T08:21:18.856Z,100687.38
2022-10-29T08:21:58.746Z,100675.56
2022-10-29T08:22:38.824Z,100686.28
2022-10-29T08:23:20.772Z,100684.50
2022-10-29T08:24:00.870Z,100683.56
2022-10-29T08:24:41.787Z,100671.50
2022-10-29T08:25:22.856Z,100689.94
2022-10-29T08:26:04.722Z,100675.63
2022-10-29T08:26:44.813Z,100689.88
2022-10-29T08:27:24.739Z,100700.63
2022-10-29T08:28:06.850Z,100690.94
2022-10-29T08:28:49.753Z,100697.00
2022-10-29T08:29:29.832Z,100705.72
2022-10-29T08:30:12.779Z,100689.34
2022-10-29T08:30:56.835Z,100698.78